createdAt,value
2019-04-13T00:02:26.569Z,7.73
2019-04-13T00:05:15.445Z,8.47
2019-04-13T00:07:46.814Z,7.70
2019-04-13T00:10:19.901Z,8.83
2019-04-13T00:12:49.496Z,8.93
2019-04-13T00:15:19.264Z,9.00
2019-04-13T00:17:48.493Z,8.67
2019-04-13T00:20:18.402Z,8.33
2019-04-13T00:22:48.716Z,8.50
2019-04-13T00:25:18.364Z,9.03
2019-04-13T00:27:48.236Z,9.13
2019-04-13T00:30:17.602Z,9.60
2019-04-13T00:32:47.780Z,9.57
2019-04-13T00:35:17.397Z,9.67
2019-04-13T00:37:47.071Z,9.60
2019-04-13T00:40:16.948Z,10.23
2019-04-13T00:42:46.683Z,10.93
2019-04-13T00:45:16.810Z,10.50
2019-04-13T00:47:45.913Z,10.57
2019-04-13T00:50:14.977Z,11.50
2019-04-13T00:52:45.328Z,11.07
2019-04-13T00:55:15.239Z,10.17
2019-04-13T00:57:45.180Z,11.17
2019-04-13T01:00:15.549Z,11.63
2019-04-13T01:02:45.463Z,11.43
2019-04-13T01:05:15.182Z,11.47
2019-04-13T01:07:46.557Z,10.80
2019-04-13T01:10:16.624Z,11.47
2019-04-13T01:12:45.625Z,11.90
2019-04-13T01:15:15.817Z,11.00
2019-04-13T01:17:45.482Z,11.47
2019-04-13T01:20:15.222Z,12.53
2019-04-13T01:22:45.641Z,11.17
2019-04-13T01:25:15.436Z,12.30
2019-04-13T01:27:45.025Z,12.33
2019-04-13T01:30:15.486Z,12.90
2019-04-13T01:32:45.163Z,12.57
2019-04-13T01:35:15.008Z,12.13
2019-04-13T01:37:45.130Z,11.50
2019-04-13T01:40:14.910Z,12.47
2019-04-13T01:42:43.976Z,13.30
2019-04-13T01:45:14.233Z,14.00
2019-04-13T01:47:44.481Z,13.37
2019-04-13T01:50:14.352Z,12.67
2019-04-13T01:52:44.205Z,13.23
2019-04-13T01:55:13.995Z,13.67
2019-04-13T01:57:44.533Z,12.67
2019-04-13T02:00:17.308Z,14.00
2019-04-13T02:02:55.703Z,13.53
2019-04-13T02:05:42.983Z,13.67
2019-04-13T02:08:34.140Z,14.20
2019-04-13T02:11:11.268Z,12.70
2019-04-13T02:13:41.102Z,14.63
2019-04-13T02:16:10.901Z,14.67
2019-04-13T02:18:40.593Z,13.17
2019-04-13T02:21:10.769Z,13.30
2019-04-13T02:23:40.797Z,14.63
2019-04-13T02:26:10.513Z,14.43
2019-04-13T02:28:40.322Z,14.77
2019-04-13T02:31:10.336Z,15.10
2019-04-13T02:33:40.049Z,14.60
2019-04-13T02:36:10.002Z,14.57
2019-04-13T02:38:39.460Z,14.50
2019-04-13T02:41:09.082Z,14.83
2019-04-13T02:43:38.974Z,15.40
2019-04-13T02:46:09.173Z,15.37
2019-04-13T02:48:38.090Z,14.17
2019-04-13T02:51:07.842Z,14.97
2019-04-13T02:53:37.631Z,14.87
2019-04-13T02:56:07.474Z,13.77
2019-04-13T02:58:37.151Z,15.37
2019-04-13T03:01:07.772Z,15.63
2019-04-13T03:03:37.434Z,15.33
2019-04-13T03:06:07.425Z,15.10
2019-04-13T03:08:37.442Z,14.97
2019-04-13T03:11:07.150Z,16.27
2019-04-13T03:13:36.914Z,15.70
2019-04-13T03:16:37.510Z,15.63
2019-04-13T03:19:29.557Z,15.50
2019-04-13T03:21:58.897Z,16.13
2019-04-13T03:24:28.549Z,15.93
2019-04-13T03:26:58.152Z,15.70
2019-04-13T03:29:28.170Z,15.37
2019-04-13T03:31:57.954Z,16.57
2019-04-13T03:34:28.052Z,15.97
2019-04-13T03:36:57.776Z,16.27
2019-04-13T03:39:27.722Z,16.67
2019-04-13T03:41:59.160Z,14.80
2019-04-13T03:44:28.711Z,16.70
2019-04-13T03:46:59.117Z,16.00
2019-04-13T03:49:29.053Z,16.80
2019-04-13T03:51:58.925Z,17.00
2019-04-13T03:54:29.259Z,17.03
2019-04-13T03:56:58.478Z,17.47
2019-04-13T03:59:28.056Z,17.17
2019-04-13T04:01:58.352Z,16.87
2019-04-13T04:04:28.026Z,17.23
2019-04-13T04:06:58.001Z,17.80
2019-04-13T04:09:28.341Z,17.63
2019-04-13T04:11:58.074Z,17.37
2019-04-13T04:14:28.046Z,16.33
2019-04-13T04:16:57.849Z,18.07
2019-04-13T04:19:28.027Z,18.20
2019-04-13T04:21:57.721Z,19.00
2019-04-13T04:24:30.663Z,18.00
2019-04-13T04:27:00.624Z,18.17
2019-04-13T04:29:30.417Z,19.13
2019-04-13T04:32:00.403Z,18.70
2019-04-13T04:34:30.642Z,19.93
2019-04-13T04:37:00.181Z,20.17
2019-04-13T04:39:30.398Z,17.77
2019-04-13T04:41:59.980Z,19.13
2019-04-13T04:44:29.520Z,18.13
2019-04-13T04:46:58.929Z,19.63
2019-04-13T04:49:28.596Z,18.93
2019-04-13T04:51:58.395Z,17.67
2019-04-13T04:54:28.524Z,20.07
2019-04-13T04:56:58.211Z,18.60
2019-04-13T04:59:27.928Z,18.20
2019-04-13T05:01:58.201Z,17.37
2019-04-13T05:04:28.196Z,17.40
2019-04-13T05:06:57.728Z,18.80
2019-04-13T05:09:27.734Z,17.97
2019-04-13T05:11:57.436Z,18.23
2019-04-13T05:14:27.036Z,18.90
2019-04-13T05:16:56.846Z,19.37
2019-04-13T05:19:26.786Z,17.17
2019-04-13T05:21:56.561Z,18.70
2019-04-13T05:24:25.767Z,18.93
2019-04-13T05:26:55.326Z,18.33
2019-04-13T05:29:24.865Z,17.83
2019-04-13T05:31:54.251Z,20.70
2019-04-13T05:34:23.918Z,20.67
2019-04-13T05:36:52.792Z,18.93
2019-04-13T05:39:22.629Z,19.20
2019-04-13T05:41:51.600Z,19.67
2019-04-13T05:44:21.301Z,20.37
2019-04-13T05:46:51.192Z,18.83
2019-04-13T05:49:20.884Z,16.87
2019-04-13T05:51:50.048Z,17.33
2019-04-13T05:54:19.445Z,17.10
2019-04-13T05:56:49.273Z,17.50
2019-04-13T05:59:18.349Z,17.13
2019-04-13T06:01:48.153Z,16.67
2019-04-13T06:04:18.109Z,16.90
2019-04-13T06:06:59.383Z,18.20
2019-04-13T06:09:19.947Z,18.63
2019-04-13T06:11:49.587Z,17.30
2019-04-13T06:14:18.459Z,15.90
2019-04-13T06:16:48.295Z,15.90
2019-04-13T06:19:17.228Z,15.87
2019-04-13T06:21:46.114Z,16.93
2019-04-13T06:24:15.925Z,17.07
2019-04-13T06:26:44.865Z,15.27
2019-04-13T06:29:13.849Z,16.03
2019-04-13T06:32:02.760Z,15.73
2019-04-13T06:34:42.329Z,15.10
2019-04-13T06:37:12.747Z,14.30
2019-04-13T06:39:42.315Z,13.30
2019-04-13T06:42:16.069Z,13.37
2019-04-13T06:44:43.425Z,13.10
2019-04-13T06:47:12.309Z,13.43
2019-04-13T06:49:41.843Z,12.93
2019-04-13T06:52:11.210Z,12.93
2019-04-13T06:54:40.893Z,11.70
2019-04-13T06:57:11.329Z,11.43
2019-04-13T06:59:41.422Z,12.00
2019-04-13T07:02:10.957Z,11.40
2019-04-13T07:04:40.857Z,12.33
2019-04-13T07:07:24.341Z,11.73
2019-04-13T07:10:07.114Z,10.97
2019-04-13T07:12:55.770Z,10.87
2019-04-13T07:15:30.177Z,10.67
2019-04-13T07:17:58.053Z,10.70
2019-04-13T07:20:28.013Z,12.13
2019-04-13T07:22:57.664Z,11.47
2019-04-13T07:25:27.481Z,11.00
2019-04-13T07:27:57.065Z,11.63
2019-04-13T07:30:26.610Z,12.77
2019-04-13T07:32:56.485Z,11.73
2019-04-13T07:35:25.780Z,12.57
2019-04-13T07:37:55.297Z,11.87
2019-04-13T07:40:25.137Z,13.03
2019-04-13T07:42:54.720Z,12.30
2019-04-13T07:45:50.701Z,13.40
2019-04-13T07:48:32.460Z,11.70
2019-04-13T07:51:06.726Z,15.20
2019-04-13T07:53:36.612Z,12.63
2019-04-13T07:56:05.559Z,12.87
2019-04-13T07:58:35.177Z,12.87
2019-04-13T08:01:06.624Z,12.43
2019-04-13T08:03:36.176Z,13.10
2019-04-13T08:06:05.071Z,14.80
2019-04-13T08:08:39.925Z,13.33
2019-04-13T08:11:07.337Z,12.33
2019-04-13T08:13:36.874Z,13.17
2019-04-13T08:16:09.345Z,13.37
2019-04-13T08:18:52.119Z,13.73
2019-04-13T08:21:21.779Z,12.47
2019-04-13T08:23:55.296Z,14.80
2019-04-13T08:26:24.987Z,13.53
2019-04-13T08:28:54.813Z,12.33
2019-04-13T08:31:26.399Z,12.90
2019-04-13T08:33:56.664Z,11.23
2019-04-13T08:36:26.881Z,12.83
2019-04-13T08:38:58.973Z,14.27
2019-04-13T08:41:28.100Z,13.60
2019-04-13T08:43:57.629Z,12.50
2019-04-13T08:46:28.227Z,13.27
2019-04-13T08:48:58.068Z,11.63
2019-04-13T08:51:27.625Z,12.43
2019-04-13T08:53:57.537Z,12.00
2019-04-13T08:56:30.796Z,12.83
2019-04-13T08:58:58.427Z,11.37
2019-04-13T09:01:28.306Z,11.37
2019-04-13T09:03:58.361Z,11.03
2019-04-13T09:06:27.908Z,12.00
2019-04-13T09:08:57.138Z,11.80
2019-04-13T09:11:26.842Z,11.33
2019-04-13T09:13:56.341Z,12.70
2019-04-13T09:16:28.853Z,12.53
2019-04-13T09:19:17.090Z,12.60
2019-04-13T09:21:54.159Z,11.27
2019-04-13T09:24:24.037Z,12.57
2019-04-13T09:26:53.582Z,10.23
2019-04-13T09:29:23.638Z,9.60
2019-04-13T09:31:52.592Z,9.37
2019-04-13T09:34:32.939Z,9.20
2019-04-13T09:36:53.305Z,8.77
2019-04-13T09:39:22.936Z,9.10
2019-04-13T09:41:51.871Z,7.73
2019-04-13T09:44:39.032Z,8.53
2019-04-13T09:47:12.870Z,8.93
2019-04-13T09:49:42.469Z,8.50
2019-04-13T09:52:11.360Z,8.50
2019-04-13T09:54:43.329Z,8.37
2019-04-13T09:57:11.924Z,7.53
2019-04-13T09:59:41.470Z,7.30
2019-04-13T10:02:11.418Z,7.57
2019-04-13T10:04:41.047Z,7.23
2019-04-13T10:07:10.574Z,7.87
2019-04-13T10:09:42.205Z,7.47
2019-04-13T10:12:32.452Z,7.27
2019-04-13T10:15:33.549Z,6.57
2019-04-13T10:18:07.240Z,5.50
2019-04-13T10:20:39.229Z,7.07
2019-04-13T10:23:07.775Z,7.97
2019-04-13T10:25:38.359Z,8.33
2019-04-13T10:28:08.929Z,7.40
2019-04-13T10:30:38.462Z,7.50
2019-04-13T10:33:08.371Z,6.17
2019-04-13T10:35:38.354Z,5.80
2019-04-13T10:38:07.881Z,5.80
2019-04-13T10:40:37.488Z,5.50
2019-04-13T10:43:06.743Z,6.00
2019-04-13T10:45:50.345Z,6.33
2019-04-13T10:48:26.453Z,6.13
2019-04-13T10:51:14.901Z,5.70
2019-04-13T10:53:44.497Z,5.00
2019-04-13T10:56:13.793Z,5.37
2019-04-13T10:58:42.716Z,5.67
2019-04-13T11:01:11.600Z,8.00
2019-04-13T11:03:41.611Z,5.77
2019-04-13T11:06:11.245Z,5.73
2019-04-13T11:08:40.130Z,6.03
2019-04-13T11:11:09.384Z,6.30
2019-04-13T11:13:39.005Z,6.67
2019-04-13T11:16:08.676Z,6.10
2019-04-13T11:18:38.644Z,6.10
2019-04-13T11:21:08.273Z,6.60
2019-04-13T11:23:45.037Z,5.77
2019-04-13T11:26:09.072Z,9.53
2019-04-13T11:28:39.251Z,5.13
2019-04-13T11:31:09.766Z,6.13
2019-04-13T11:33:42.483Z,8.57
2019-04-13T11:36:11.072Z,5.40
2019-04-13T11:38:39.941Z,5.03
2019-04-13T11:41:19.645Z,6.07
2019-04-13T11:44:06.921Z,7.00
2019-04-13T11:46:45.130Z,7.53
2019-04-13T11:49:16.853Z,6.37
2019-04-13T11:51:48.077Z,8.40
2019-04-13T11:54:20.838Z,8.40
2019-04-13T11:56:50.724Z,9.13
2019-04-13T11:59:19.619Z,8.23
2019-04-13T12:02:08.170Z,8.13
2019-04-13T12:04:49.343Z,7.60
2019-04-13T12:16:55.703Z,9.27
2019-04-13T12:19:30.000Z,8.87
2019-04-13T12:22:12.528Z,8.87
2019-04-13T12:24:41.404Z,7.43
2019-04-13T12:27:11.056Z,7.90
2019-04-13T12:29:46.891Z,8.37
2019-04-13T12:32:34.669Z,9.17
2019-04-13T12:35:07.910Z,9.27
2019-04-13T12:37:36.246Z,9.43
2019-04-13T12:40:26.077Z,9.50
2019-04-13T12:43:01.810Z,7.97
2019-04-13T12:45:32.583Z,7.97
2019-04-13T12:48:09.188Z,8.37
2019-04-13T12:50:38.741Z,7.57
2019-04-13T12:53:08.292Z,8.20
2019-04-13T12:55:44.068Z,8.23
2019-04-13T12:58:12.972Z,9.90
2019-04-13T13:00:45.889Z,7.77
2019-04-13T13:03:23.103Z,8.17
2019-04-13T13:05:53.608Z,9.67
2019-04-13T13:08:23.373Z,9.90
2019-04-13T13:10:53.048Z,7.47
2019-04-13T13:13:22.833Z,8.80
2019-04-13T13:15:52.431Z,8.40
2019-04-13T13:18:26.177Z,9.17
2019-04-13T13:20:52.900Z,6.73
2019-04-13T13:23:22.433Z,8.63
2019-04-13T13:25:52.064Z,7.87
2019-04-13T13:28:21.876Z,8.23
2019-04-13T13:30:51.779Z,8.20
2019-04-13T13:33:20.824Z,9.20
2019-04-13T13:35:50.801Z,9.83
2019-04-13T13:50:15.477Z,9.13
2019-04-13T13:52:44.381Z,7.60
2019-04-13T13:55:20.615Z,9.00
2019-04-13T13:58:10.393Z,10.60
2019-04-13T14:01:18.952Z,9.43
2019-04-13T14:03:48.685Z,7.80
2019-04-13T14:06:20.912Z,9.50
2019-04-13T14:08:56.683Z,7.80
2019-04-13T14:14:34.515Z,7.93
2019-04-13T14:17:04.485Z,7.37
2019-04-13T14:19:34.133Z,6.93
2019-04-13T14:22:10.764Z,6.43
2019-04-13T14:24:39.670Z,8.20
2019-04-13T14:27:14.720Z,7.87
2019-04-13T14:29:44.860Z,5.90
2019-04-13T14:32:14.470Z,8.97
2019-04-13T14:34:52.398Z,7.13
2019-04-13T14:37:21.980Z,9.57
2019-04-13T14:39:50.867Z,7.40
2019-04-13T14:42:27.445Z,8.87
2019-04-13T14:44:59.770Z,8.20
2019-04-13T14:47:29.628Z,8.20
2019-04-13T14:50:05.218Z,7.87
2019-04-13T14:52:34.110Z,8.17
2019-04-13T14:55:22.546Z,7.80
2019-04-13T14:57:51.438Z,6.73
2019-04-13T15:00:21.355Z,7.77
2019-04-13T15:02:58.433Z,7.03
2019-04-13T15:05:28.975Z,7.70
2019-04-13T15:07:58.541Z,7.70
2019-04-13T15:10:35.416Z,7.43
2019-04-13T15:13:10.363Z,8.00
2019-04-13T15:15:47.383Z,8.47
2019-04-13T15:18:34.876Z,9.00
2019-04-13T15:21:11.084Z,8.23
2019-04-13T15:23:42.556Z,8.00
2019-04-13T15:26:19.010Z,7.97
2019-04-13T15:28:49.473Z,8.03
2019-04-13T15:31:18.705Z,7.83
2019-04-13T15:33:58.095Z,8.03
2019-04-13T15:36:30.911Z,8.27
2019-04-13T15:39:01.550Z,8.17
2019-04-13T15:41:46.136Z,8.37
2019-04-13T15:44:09.485Z,9.43
2019-04-13T15:46:39.196Z,8.70
2019-04-13T15:49:15.441Z,9.97
2019-04-13T15:51:44.967Z,9.13
2019-04-13T15:54:22.275Z,8.90
2019-04-13T15:56:51.236Z,8.10
2019-04-13T15:59:21.613Z,8.20
2019-04-13T16:01:59.411Z,9.23
2019-04-13T16:04:29.043Z,8.57
2019-04-13T16:07:05.340Z,8.17
2019-04-13T16:09:57.455Z,8.77
2019-04-13T16:12:38.977Z,8.30
2019-04-13T16:15:16.363Z,9.63
2019-04-13T16:17:52.141Z,9.97
2019-04-13T16:20:22.862Z,14.40
2019-04-13T16:22:51.805Z,11.07
2019-04-13T16:25:30.563Z,11.17
2019-04-13T16:28:28.714Z,10.30
2019-04-13T16:31:15.970Z,8.50
2019-04-13T16:34:05.165Z,10.30
2019-04-13T16:36:56.598Z,7.47
2019-04-13T16:39:32.649Z,8.90
2019-04-13T16:42:08.693Z,8.80
2019-04-13T16:44:58.361Z,8.77
2019-04-13T16:48:05.082Z,8.60
2019-04-13T16:50:51.593Z,7.70
2019-04-13T16:53:40.889Z,7.97
2019-04-13T16:56:41.961Z,8.20
2019-04-13T16:59:39.241Z,7.80
2019-04-13T17:02:33.797Z,7.80
2019-04-13T17:05:07.222Z,8.70
2019-04-13T17:07:44.718Z,7.73
2019-04-13T17:10:14.932Z,7.80
2019-04-13T17:12:46.282Z,8.30
2019-04-13T17:15:31.262Z,9.27
2019-04-13T17:18:10.004Z,9.20
2019-04-13T17:21:13.484Z,8.87
2019-04-13T17:24:07.333Z,10.07
2019-04-13T17:27:05.163Z,8.70
2019-04-13T17:29:50.231Z,8.77
2019-04-13T17:32:44.249Z,8.90
2019-04-13T17:35:24.563Z,9.73
2019-04-13T17:37:54.806Z,9.67
2019-04-13T17:40:36.733Z,9.77
2019-04-13T17:43:34.514Z,7.80
2019-04-13T17:46:36.993Z,7.77
2019-04-13T17:49:23.601Z,11.17
2019-04-13T17:52:19.025Z,13.27
2019-04-13T17:55:04.747Z,14.27
2019-04-13T17:58:06.753Z,16.03
2019-04-13T18:01:10.322Z,15.00
2019-04-13T18:04:14.459Z,13.10
2019-04-13T18:07:21.742Z,15.53
2019-04-13T18:10:23.565Z,14.10
2019-04-13T18:13:20.358Z,14.70
2019-04-13T18:16:06.575Z,15.30
2019-04-13T18:18:47.738Z,15.80
2019-04-13T18:21:24.209Z,16.30
2019-04-13T18:23:53.122Z,13.40
2019-04-13T18:26:29.328Z,13.50
2019-04-13T18:28:58.824Z,12.50
2019-04-13T18:31:27.800Z,13.30
2019-04-13T18:34:04.000Z,14.93
2019-04-13T18:36:34.187Z,23.50
2019-04-13T18:39:13.435Z,16.67
2019-04-13T18:41:43.687Z,16.07
2019-04-13T18:44:13.671Z,16.97
2019-04-13T18:46:49.263Z,16.47
2019-04-13T18:49:20.188Z,18.00
2019-04-13T18:51:56.600Z,16.27
2019-04-13T18:54:26.504Z,16.53
2019-04-13T18:56:56.187Z,15.93
2019-04-13T18:59:33.647Z,16.63
2019-04-13T19:02:02.528Z,16.87
2019-04-13T19:04:39.924Z,17.33
2019-04-13T19:07:09.525Z,14.90
2019-04-13T19:09:39.374Z,13.47
2019-04-13T19:12:16.042Z,15.30
2019-04-13T19:14:45.626Z,16.60
2019-04-13T19:17:28.549Z,21.70
2019-04-13T19:19:57.443Z,19.03
2019-04-13T19:22:26.365Z,25.70
2019-04-13T19:25:03.153Z,15.23
2019-04-13T19:27:33.617Z,14.63
2019-04-13T19:30:10.770Z,15.40
2019-04-13T19:36:03.925Z,14.33
2019-04-13T19:38:33.745Z,12.20
2019-04-13T19:41:03.486Z,12.27
2019-04-13T19:43:33.985Z,12.77
2019-04-13T19:46:03.684Z,12.83
2019-04-13T19:48:33.590Z,12.93
2019-04-13T19:51:03.670Z,13.77
2019-04-13T19:53:43.910Z,13.33
2019-04-13T19:56:15.216Z,13.67
2019-04-13T19:58:44.785Z,14.20
2019-04-13T20:01:15.593Z,13.33
2019-04-13T20:03:45.629Z,12.80
2019-04-13T20:06:19.181Z,15.13
2019-04-13T20:08:46.891Z,14.77
2019-04-13T20:11:16.844Z,14.00
2019-04-13T20:13:53.429Z,15.80
2019-04-13T20:16:18.896Z,14.07
2019-04-13T20:18:48.863Z,14.67
2019-04-13T20:21:18.424Z,15.37
2019-04-13T20:23:47.389Z,16.37
2019-04-13T20:26:18.613Z,17.37
2019-04-13T20:28:48.261Z,15.23
2019-04-13T20:31:18.238Z,16.13
2019-04-13T20:33:50.391Z,15.00
2019-04-13T20:36:22.584Z,14.93
2019-04-13T20:38:52.070Z,16.23
2019-04-13T20:41:23.569Z,16.67
2019-04-13T20:43:59.565Z,16.53
2019-04-13T20:46:25.736Z,14.93
2019-04-13T20:48:55.532Z,15.43
2019-04-13T20:51:25.746Z,17.37
2019-04-13T20:53:55.992Z,15.87
2019-04-13T20:56:25.662Z,16.57
2019-04-13T20:58:55.525Z,18.33
2019-04-13T21:01:25.835Z,16.50
2019-04-13T21:03:55.611Z,19.47
2019-04-13T21:06:24.544Z,17.80
2019-04-13T21:08:55.994Z,21.50
2019-04-13T21:11:25.640Z,24.27
2019-04-13T21:14:04.977Z,26.87
2019-04-13T21:16:26.215Z,41.53
2019-04-13T21:18:55.810Z,26.60
2019-04-13T21:21:25.980Z,37.07
2019-04-13T21:23:55.893Z,28.23
2019-04-13T21:26:26.977Z,36.33
2019-04-13T21:28:58.261Z,45.63
2019-04-13T21:31:28.163Z,23.23
2019-04-13T21:33:58.286Z,27.00
2019-04-13T21:36:28.128Z,21.87
2019-04-13T21:38:58.411Z,25.90
2019-04-13T21:41:28.176Z,32.33
2019-04-13T21:44:10.023Z,25.77
2019-04-13T21:46:28.866Z,30.07
2019-04-13T21:48:58.984Z,35.50
2019-04-13T21:51:46.645Z,24.20
2019-04-13T21:54:21.380Z,25.40
2019-04-13T21:56:51.515Z,24.80
2019-04-13T21:59:21.549Z,28.07
2019-04-13T22:02:20.414Z,25.00
2019-04-13T22:04:50.397Z,23.33
2019-04-13T22:07:20.163Z,20.07
2019-04-13T22:09:50.056Z,21.27
2019-04-13T22:12:19.985Z,19.73
2019-04-13T22:14:54.956Z,21.60
2019-04-13T22:17:22.487Z,21.47
2019-04-13T22:19:52.943Z,20.97
2019-04-13T22:22:23.553Z,21.53
2019-04-13T22:24:54.787Z,21.73
2019-04-13T22:27:27.037Z,23.23
2019-04-13T22:29:57.487Z,20.83
2019-04-13T22:32:58.733Z,21.47
2019-04-13T22:35:41.069Z,23.23
2019-04-13T22:38:11.321Z,22.20
2019-04-13T22:40:41.234Z,21.53
2019-04-13T22:43:11.075Z,21.77
2019-04-13T22:45:42.503Z,21.07
2019-04-13T22:48:26.980Z,20.40
2019-04-13T22:51:11.873Z,20.53
2019-04-13T22:53:59.314Z,20.33
2019-04-13T22:56:35.532Z,20.47
2019-04-13T22:59:05.330Z,20.67
2019-04-13T23:01:35.816Z,21.20
2019-04-13T23:04:05.952Z,21.63
2019-04-13T23:06:35.835Z,22.73
2019-04-13T23:09:08.586Z,21.87
2019-04-13T23:11:38.931Z,21.93
2019-04-13T23:14:09.005Z,21.83
2019-04-13T23:16:39.153Z,22.63
2019-04-13T23:19:09.049Z,21.50
2019-04-13T23:21:41.871Z,22.93
2019-04-13T23:24:12.378Z,21.80
2019-04-13T23:26:41.352Z,24.03
2019-04-13T23:29:10.969Z,22.80
2019-04-13T23:31:41.061Z,22.77
2019-04-13T23:34:11.513Z,25.20
2019-04-13T23:36:40.436Z,25.20
2019-04-13T23:39:10.588Z,24.13
2019-04-13T23:41:40.742Z,24.30
2019-04-13T23:44:11.331Z,22.77
2019-04-13T23:46:41.684Z,21.70
2019-04-13T23:49:12.284Z,22.73
2019-04-13T23:51:42.426Z,22.60
2019-04-13T23:54:12.954Z,22.20
2019-04-13T23:56:50.016Z,22.30
2019-04-13T23:59:26.344Z,22.53
